Time;durP1;ratioP1;P1;durP2;ratioP2;P2;SDS_P1;SDS_P2;PMS_P1;PMS_P2;Temp;Humidity;BMP_temperature;BMP_pressure;BME280_temperature;BME280_humidity;BME280_pressure;Samples;Min_cycle;Max_cycle;Signal;HPM_P1;HPM_P2
2024/01/17 00:01:45;;;;;;;7.85;3.20;;;;;;;-5.89;60.90;98780.16;10537400;28;20492;-63
2024/01/17 00:06:47;;;;;;;11.52;3.83;;;;;;;-5.78;60.34;98765.56;10521624;28;20040;-62
2024/01/17 00:11:53;;;;;;;10.10;4.57;;;;;;;-5.78;60.35;98745.19;10517309;28;20096;-62
2024/01/17 00:16:55;;;;;;;9.80;4.20;;;;;;;-5.75;60.38;98738.38;10521645;28;20048;-62
2024/01/17 00:21:57;;;;;;;10.35;5.65;;;;;;;-5.77;59.78;98724.84;10521679;28;20603;-62
2024/01/17 00:26:59;;;;;;;8.80;4.05;;;;;;;-5.97;60.29;98724.22;10516586;28;20235;-63
2024/01/17 00:32:01;;;;;;;15.07;4.18;;;;;;;-5.87;60.63;98719.88;10509771;28;20617;-62
2024/01/17 00:37:03;;;;;;;8.23;4.00;;;;;;;-5.73;60.58;98705.25;10517029;28;20125;-62
2024/01/17 00:42:06;;;;;;;11.73;5.45;;;;;;;-5.67;60.33;98684.78;10521072;28;20048;-62
2024/01/17 00:47:08;;;;;;;13.98;5.20;;;;;;;-5.60;59.74;98681.28;10515588;28;20784;-62
2024/01/17 00:52:10;;;;;;;7.78;4.40;;;;;;;-5.66;59.94;98661.00;10529617;28;20143;-63
2024/01/17 00:57:13;;;;;;;9.68;4.18;;;;;;;-5.61;59.88;98657.53;10530083;28;20155;-63
2024/01/17 01:02:15;;;;;;;11.07;4.60;;;;;;;-5.97;58.98;98660.59;10532084;28;20568;-62
2024/01/17 01:07:17;;;;;;;11.82;4.95;;;;;;;-6.14;59.80;98657.47;10528844;28;20143;-62
2024/01/17 01:12:19;;;;;;;9.20;4.35;;;;;;;-6.04;59.99;98646.28;10530248;28;20134;-62
2024/01/17 01:17:21;;;;;;;10.07;4.80;;;;;;;-5.95;59.28;98645.34;10530673;28;20127;-62
2024/01/17 01:22:23;;;;;;;12.15;4.90;;;;;;;-6.19;59.65;98645.69;10531466;28;20487;-62
2024/01/17 01:27:25;;;;;;;8.68;5.22;;;;;;;-6.06;59.63;98640.38;10535244;28;20075;-62
2024/01/17 01:32:29;;;;;;;8.63;4.85;;;;;;;-5.96;59.83;98641.94;10531404;28;20163;-62
2024/01/17 01:37:31;;;;;;;7.50;4.05;;;;;;;-6.00;59.46;98637.75;10530520;28;20446;-61
2024/01/17 01:42:34;;;;;;;13.20;4.65;;;;;;;-6.10;59.32;98623.47;10512180;28;20123;-63
2024/01/17 01:47:36;;;;;;;9.75;4.78;;;;;;;-6.24;59.48;98620.28;10538668;28;20127;-62
2024/01/17 01:52:42;;;;;;;7.60;4.00;;;;;;;-6.27;59.92;98617.78;10538133;28;20458;-61
2024/01/17 01:57:50;;;;;;;6.43;3.70;;;;;;;-6.43;59.52;98611.22;10526281;28;20184;-63
2024/01/17 02:02:53;;;;;;;8.43;4.78;;;;;;;-6.26;60.35;98605.06;10529852;28;20051;-62
2024/01/17 02:07:55;;;;;;;9.52;4.15;;;;;;;-6.46;59.82;98598.56;10522927;28;20059;-63
2024/01/17 02:12:59;;;;;;;9.68;3.60;;;;;;;-6.37;60.04;98585.69;10521290;28;20519;-63
2024/01/17 02:18:02;;;;;;;9.15;3.92;;;;;;;-6.51;59.30;98569.78;10538141;28;20093;-63
2024/01/17 02:23:22;;;;;;;9.90;4.20;;;;;;;-6.50;59.97;98561.31;10521995;28;20052;-62
2024/01/17 02:28:28;;;;;;;8.32;4.30;;;;;;;-6.39;59.70;98551.81;10523288;28;20515;-63
2024/01/17 02:33:30;;;;;;;5.97;3.42;;;;;;;-6.35;59.61;98556.00;10521973;28;20113;-63
2024/01/17 02:38:33;;;;;;;10.82;4.25;;;;;;;-6.34;59.55;98545.78;10486435;28;20052;-63
2024/01/17 02:43:35;;;;;;;12.98;4.72;;;;;;;-6.36;59.51;98528.91;10521469;28;20130;-62
2024/01/17 02:48:37;;;;;;;8.68;3.85;;;;;;;-6.37;59.35;98522.13;10520091;28;20048;-63
2024/01/17 02:53:39;;;;;;;8.00;4.28;;;;;;;-6.47;59.23;98505.31;10520823;28;20040;-63
2024/01/17 02:58:41;;;;;;;15.98;4.40;;;;;;;-6.71;59.68;98496.34;10518200;28;20049;-62
2024/01/17 03:03:43;;;;;;;5.75;3.38;;;;;;;-6.72;59.42;98487.03;10520908;28;20510;-61
2024/01/17 03:08:45;;;;;;;8.65;3.50;;;;;;;-6.89;59.56;98467.78;10527714;28;20527;-64
2024/01/17 03:13:47;;;;;;;7.05;4.18;;;;;;;-6.79;59.70;98465.09;10519533;28;20056;-63
2024/01/17 03:18:49;;;;;;;10.80;4.13;;;;;;;-6.83;59.77;98457.53;10508265;28;20047;-63
2024/01/17 03:23:52;;;;;;;8.00;3.85;;;;;;;-6.80;59.71;98448.16;10523563;28;20040;-63
2024/01/17 03:28:54;;;;;;;10.07;4.22;;;;;;;-6.68;60.00;98439.53;10526612;28;20500;-63
2024/01/17 03:33:56;;;;;;;12.48;3.92;;;;;;;-6.59;59.78;98441.94;10519343;28;20052;-62
2024/01/17 03:38:58;;;;;;;10.00;4.82;;;;;;;-6.63;59.43;98432.66;10533776;28;20070;-62
2024/01/17 03:44:00;;;;;;;12.02;4.53;;;;;;;-6.84;59.52;98427.91;10523644;28;20048;-63
2024/01/17 03:49:02;;;;;;;8.23;3.88;;;;;;;-6.89;59.69;98414.44;10519411;28;20458;-62
2024/01/17 03:54:05;;;;;;;12.98;3.97;;;;;;;-6.99;59.72;98407.81;10525167;28;20385;-63
2024/01/17 03:59:07;;;;;;;10.80;5.05;;;;;;;-7.00;59.51;98393.41;10501235;28;20126;-63
2024/01/17 04:04:10;;;;;;;7.60;3.33;;;;;;;-6.95;59.80;98378.94;10503301;28;20384;-63
2024/01/17 04:09:12;;;;;;;14.60;3.88;;;;;;;-6.95;59.85;98366.25;10520340;28;20040;-62
2024/01/17 04:14:14;;;;;;;5.70;3.47;;;;;;;-6.91;59.61;98350.94;10538087;27;20059;-63
2024/01/17 04:19:16;;;;;;;8.70;4.07;;;;;;;-7.12;60.00;98339.38;10500020;28;20118;-63
2024/01/17 04:24:19;;;;;;;7.60;3.85;;;;;;;-7.17;59.77;98320.81;10522468;28;20760;-62
2024/01/17 04:29:21;;;;;;;9.77;4.45;;;;;;;-7.03;60.38;98314.72;10518649;28;20120;-61
2024/01/17 04:34:23;;;;;;;5.78;3.47;;;;;;;-6.84;60.22;98301.66;10516231;28;20054;-62
2024/01/17 04:39:25;;;;;;;15.00;8.43;;;;;;;-6.85;59.60;98294.09;10499535;28;20352;-63
2024/01/17 04:44:32;;;;;;;5.85;3.17;;;;;;;-6.93;59.57;98289.13;10520392;28;20040;-62
2024/01/17 04:49:35;;;;;;;8.63;4.15;;;;;;;-7.03;59.26;98277.44;10517843;28;20036;-62
2024/01/17 04:54:37;;;;;;;8.27;4.15;;;;;;;-7.25;59.51;98266.78;10501158;28;20070;-63
2024/01/17 04:59:39;;;;;;;5.38;3.03;;;;;;;-7.21;59.27;98245.53;10517837;28;20056;-62
2024/01/17 05:04:41;;;;;;;9.35;4.57;;;;;;;-7.23;59.33;98236.25;10518057;28;20446;-62
2024/01/17 05:09:43;;;;;;;10.85;4.28;;;;;;;-7.25;59.67;98217.66;10517306;28;20050;-62
2024/01/17 05:14:45;;;;;;;7.57;3.83;;;;;;;-7.16;60.05;98208.22;10518719;28;20052;-63
2024/01/17 05:19:47;;;;;;;8.65;3.88;;;;;;;-6.84;60.07;98197.47;10516477;28;20044;-63
2024/01/17 05:24:49;;;;;;;6.80;3.30;;;;;;;-6.77;59.21;98199.06;10531763;28;20052;-62
2024/01/17 05:29:51;;;;;;;6.22;3.47;;;;;;;-6.77;59.39;98186.34;10526719;28;20044;-63
2024/01/17 05:34:54;;;;;;;6.63;3.50;;;;;;;-6.68;60.02;98167.56;10522771;28;20330;-61
2024/01/17 05:39:56;;;;;;;10.25;3.58;;;;;;;-6.49;59.66;98159.53;10521465;28;20643;-62
2024/01/17 05:44:58;;;;;;;9.30;4.32;;;;;;;-6.41;59.62;98144.94;10528884;28;20051;-62
2024/01/17 05:50:11;;;;;;;5.60;3.15;;;;;;;-6.38;59.24;98133.88;10526782;28;20048;-62
2024/01/17 05:55:17;;;;;;;7.68;4.15;;;;;;;-6.39;59.42;98129.66;10522602;28;20500;-62
2024/01/17 06:00:19;;;;;;;11.27;3.63;;;;;;;-6.29;59.56;98121.78;10520701;28;20059;-62
2024/01/17 06:05:21;;;;;;;7.65;3.33;;;;;;;-6.30;59.17;98098.94;10524978;28;20056;-62
2024/01/17 06:10:25;;;;;;;11.65;4.15;;;;;;;-6.31;59.36;98094.72;10519532;28;20048;-63
2024/01/17 06:15:27;;;;;;;7.15;3.83;;;;;;;-6.35;59.28;98081.22;10502359;28;20072;-63
2024/01/17 06:20:30;;;;;;;6.13;3.55;;;;;;;-6.32;59.07;98067.63;10521159;28;20052;-63
2024/01/17 06:25:32;;;;;;;8.80;3.42;;;;;;;-6.17;59.47;98059.63;10520378;28;20066;-63
2024/01/17 06:30:35;;;;;;;8.50;3.90;;;;;;;-6.29;59.42;98054.81;10522929;28;20119;-62
2024/01/17 06:35:37;;;;;;;8.27;3.88;;;;;;;-6.10;59.47;98052.69;10521010;28;20496;-62
2024/01/17 06:40:39;;;;;;;6.85;3.80;;;;;;;-5.93;59.32;98046.31;10526187;28;20490;-63
2024/01/17 06:45:42;;;;;;;9.05;3.65;;;;;;;-5.98;58.92;98048.16;10522316;28;20105;-62
2024/01/17 06:50:44;;;;;;;7.32;3.50;;;;;;;-5.97;59.20;98042.16;10526784;28;20070;-62
2024/01/17 06:55:47;;;;;;;5.88;2.85;;;;;;;-5.92;58.96;98027.66;10522946;28;20664;-62
2024/01/17 07:00:49;;;;;;;9.50;4.35;;;;;;;-5.91;59.40;98020.84;10523290;28;20075;-62
2024/01/17 07:05:51;;;;;;;6.88;3.38;;;;;;;-5.76;59.06;98017.91;10521420;28;20056;-61
2024/01/17 07:10:53;;;;;;;7.40;3.42;;;;;;;-5.85;59.10;98001.19;10525557;28;20389;-62
2024/01/17 07:15:55;;;;;;;7.55;3.28;;;;;;;-6.03;59.33;97998.25;10521047;28;20552;-62
2024/01/17 07:20:57;;;;;;;7.45;3.72;;;;;;;-5.92;59.82;97991.16;10520295;28;20126;-62
2024/01/17 07:26:00;;;;;;;7.45;3.38;;;;;;;-5.77;59.50;97990.78;10519260;28;20392;-62
2024/01/17 07:31:02;;;;;;;12.82;3.53;;;;;;;-5.72;59.39;97983.84;10516433;28;20080;-62
2024/01/17 07:36:05;;;;;;;5.57;3.08;;;;;;;-5.69;59.17;97973.59;10521034;28;20112;-62
2024/01/17 07:41:07;;;;;;;6.38;3.42;;;;;;;-5.70;59.44;97957.50;10504814;28;20508;-62
2024/01/17 07:46:10;;;;;;;8.73;3.35;;;;;;;-5.51;59.27;97958.69;10527334;28;20047;-63
2024/01/17 07:51:13;;;;;;;7.25;3.47;;;;;;;-5.42;59.04;97945.69;10505494;28;20125;-62
2024/01/17 07:56:16;;;;;;;7.00;3.45;;;;;;;-5.41;59.16;97931.22;10521306;28;20105;-62
2024/01/17 08:01:18;;;;;;;7.85;3.25;;;;;;;-5.11;58.87;97919.31;10512307;28;20598;-62
2024/01/17 08:06:20;;;;;;;9.73;3.83;;;;;;;-5.00;58.69;97917.31;10520028;28;20408;-62
2024/01/17 08:11:23;;;;;;;10.27;3.70;;;;;;;-4.94;58.13;97887.38;10519055;28;20040;-62
2024/01/17 08:16:25;;;;;;;9.05;3.42;;;;;;;-4.80;58.14;97866.53;10519680;28;20036;-62
2024/01/17 08:21:27;;;;;;;6.15;3.05;;;;;;;-4.62;57.84;97855.75;10516193;28;20127;-62
2024/01/17 08:26:29;;;;;;;5.53;3.08;;;;;;;-4.37;58.10;97831.13;10517869;28;20051;-62
2024/01/17 08:31:32;;;;;;;7.22;2.72;;;;;;;-4.15;57.24;97831.19;10504617;28;20043;-62
2024/01/17 08:36:34;;;;;;;7.43;3.83;;;;;;;-4.26;57.17;97831.56;10487127;28;20062;-63
2024/01/17 08:41:40;;;;;;;5.38;3.40;;;;;;;-4.19;57.57;97814.34;10514206;28;20117;-63
2024/01/17 08:46:46;;;;;;;5.85;4.32;;;;;;;-3.85;57.13;97809.69;10514866;28;20040;-62
2024/01/17 08:51:48;;;;;;;11.13;3.75;;;;;;;-3.87;56.64;97807.22;10515313;28;20044;-68
2024/01/17 08:56:50;;;;;;;7.70;3.70;;;;;;;-3.70;57.02;97792.13;10517399;28;20143;-67
2024/01/17 09:01:52;;;;;;;8.93;3.78;;;;;;;-3.60;56.69;97779.81;10515605;28;20088;-67
2024/01/17 09:06:55;;;;;;;12.23;4.25;;;;;;;-3.59;56.41;97763.63;10521174;28;20062;-67
2024/01/17 09:11:57;;;;;;;9.07;3.42;;;;;;;-3.46;56.38;97761.41;10526004;28;20036;-67
2024/01/17 09:17:02;;;;;;;7.60;3.90;;;;;;;-3.46;56.51;97754.59;10500232;27;20243;-67
2024/01/17 09:22:08;;;;;;;7.53;3.28;;;;;;;-3.13;56.75;97731.97;10526765;28;20075;-66
2024/01/17 09:27:11;;;;;;;7.70;3.58;;;;;;;-3.03;56.57;97723.06;10520721;27;20133;-67
2024/01/17 09:32:13;;;;;;;10.15;3.42;;;;;;;-3.13;56.23;97724.31;10523849;27;20044;-67
2024/01/17 09:37:20;;;;;;;8.60;4.45;;;;;;;-3.08;56.18;97713.00;10534236;28;20715;-67
2024/01/17 09:42:23;;;;;;;5.28;3.10;;;;;;;-3.06;56.44;97706.09;10504648;28;20034;-66
2024/01/17 09:47:26;;;;;;;8.00;4.00;;;;;;;-3.00;56.23;97698.19;10525021;28;20508;-67
2024/01/17 09:52:32;;;;;;;6.30;3.13;;;;;;;-3.23;56.06;97695.75;10509518;28;20048;-67
2024/01/17 09:57:41;;;;;;;8.35;3.50;;;;;;;-3.25;56.56;97686.47;10520785;28;20128;-67
2024/01/17 10:02:43;;;;;;;6.38;3.38;;;;;;;-3.09;56.48;97682.41;10503629;28;20070;-67
2024/01/17 10:07:45;;;;;;;8.13;3.75;;;;;;;-3.36;56.62;97666.44;10520913;28;20619;-66
2024/01/17 10:12:47;;;;;;;6.95;3.60;;;;;;;-3.19;56.98;97661.50;10524609;28;20101;-67
2024/01/17 10:17:49;;;;;;;5.18;2.95;;;;;;;-2.92;56.76;97644.19;10503678;28;20134;-66
2024/01/17 10:22:55;;;;;;;10.27;4.00;;;;;;;-2.72;56.37;97618.59;10505956;28;20056;-66
2024/01/17 10:27:58;;;;;;;6.35;3.45;;;;;;;-2.80;56.31;97605.28;10516806;27;20781;-66
2024/01/17 10:33:02;;;;;;;7.82;3.60;;;;;;;-2.61;56.90;97587.41;10490195;28;20097;-66
2024/01/17 10:38:04;;;;;;;9.98;4.10;;;;;;;-2.48;56.61;97571.44;10514510;28;20045;-66
2024/01/17 10:43:10;;;;;;;7.28;4.05;;;;;;;-2.48;56.68;97574.00;10535354;27;20072;-65
2024/01/17 10:48:15;;;;;;;5.93;3.25;;;;;;;-2.21;57.14;97565.06;10518801;28;20488;-65
2024/01/17 10:53:19;;;;;;;7.25;3.60;;;;;;;-2.26;56.85;97556.75;10516519;28;20516;-66
2024/01/17 10:58:21;;;;;;;7.55;3.90;;;;;;;-2.34;56.79;97548.59;10501888;28;20063;-66
2024/01/17 11:03:28;;;;;;;7.85;3.63;;;;;;;-2.10;56.82;97537.22;10524916;28;20191;-66
2024/01/17 11:08:32;;;;;;;6.20;3.67;;;;;;;-2.04;56.96;97521.56;10545449;27;20055;-66
2024/01/17 11:13:35;;;;;;;10.75;3.88;;;;;;;-2.04;56.36;97513.88;10503358;28;20067;-66
2024/01/17 11:18:40;;;;;;;8.73;3.72;;;;;;;-1.98;56.77;97502.53;10498262;28;20044;-66
2024/01/17 11:23:52;;;;;;;6.00;3.47;;;;;;;-1.80;56.80;97499.06;10519494;27;20044;-66
2024/01/17 11:29:08;;;;;;;13.88;4.68;;;;;;;-1.77;56.86;97488.66;10504150;27;20032;-66
2024/01/17 11:34:11;;;;;;;10.30;4.60;;;;;;;-1.70;56.99;97474.66;10520708;28;20079;-66
2024/01/17 11:39:14;;;;;;;8.38;4.15;;;;;;;-1.33;56.96;97466.75;10500416;28;20048;-67
2024/01/17 11:44:18;;;;;;;10.15;3.72;;;;;;;-1.10;56.89;97447.59;10515420;28;20040;-67
2024/01/17 11:49:39;;;;;;;7.93;3.65;;;;;;;-0.96;57.05;97437.44;10524279;28;20067;-66
2024/01/17 11:54:44;;;;;;;9.30;4.43;;;;;;;-1.07;56.61;97414.13;10521932;28;20052;-67
2024/01/17 12:00:06;;;;;;;7.60;4.00;;;;;;;-1.41;57.41;97389.41;10520966;28;20244;-67
2024/01/17 12:05:12;;;;;;;9.00;4.10;;;;;;;-1.47;57.82;97388.94;10504129;28;20993;-67
2024/01/17 12:10:15;;;;;;;10.77;5.00;;;;;;;-1.38;58.10;97370.47;10499246;28;20051;-66
2024/01/17 12:15:18;;;;;;;10.40;4.75;;;;;;;-1.44;58.31;97352.88;10516629;28;20132;-67
2024/01/17 12:20:21;;;;;;;13.45;4.93;;;;;;;-1.76;59.33;97334.06;10513562;28;20127;-67
2024/01/17 12:25:23;;;;;;;9.15;5.00;;;;;;;-1.62;58.91;97312.84;10498434;28;20488;-67
2024/01/17 12:30:25;;;;;;;8.13;4.82;;;;;;;-1.44;58.75;97296.47;10514228;28;20047;-67
2024/01/17 12:35:28;;;;;;;9.63;4.50;;;;;;;-1.21;58.78;97294.31;10498736;28;20193;-66
2024/01/17 12:40:30;;;;;;;10.70;4.78;;;;;;;-1.26;59.12;97269.84;10521325;28;20047;-67
2024/01/17 12:45:34;;;;;;;11.23;4.93;;;;;;;-1.01;59.02;97247.06;10497759;28;20051;-66
2024/01/17 12:50:54;;;;;;;10.38;5.40;;;;;;;-0.80;59.22;97247.59;10511638;28;20048;-66
2024/01/17 12:55:59;;;;;;;7.00;3.78;;;;;;;-0.80;58.80;97233.00;10508744;28;20400;-66
2024/01/17 13:01:01;;;;;;;10.70;3.78;;;;;;;-0.90;59.10;97213.91;10522675;28;20450;-66
2024/01/17 13:06:06;;;;;;;8.75;4.18;;;;;;;-1.06;59.50;97202.09;10502481;28;20044;-67
2024/01/17 13:11:18;;;;;;;10.75;4.43;;;;;;;-0.92;60.59;97192.66;10498223;28;20476;-66
2024/01/17 13:16:21;;;;;;;7.80;4.25;;;;;;;-0.67;59.74;97177.50;10515840;28;20079;-66
2024/01/17 13:21:23;;;;;;;8.85;4.32;;;;;;;-0.64;59.44;97167.09;10516134;28;20127;-66
2024/01/17 13:26:25;;;;;;;8.32;4.40;;;;;;;-0.86;59.80;97155.59;10517116;28;20433;-66
2024/01/17 13:31:27;;;;;;;6.38;3.75;;;;;;;-0.93;60.58;97144.84;10515440;28;20593;-66
2024/01/17 13:36:29;;;;;;;11.32;4.28;;;;;;;-0.84;60.43;97135.81;10516472;28;20048;-66
2024/01/17 13:41:33;;;;;;;9.50;3.83;;;;;;;-0.78;60.66;97136.25;10485897;28;20583;-66
2024/01/17 13:46:36;;;;;;;10.18;4.65;;;;;;;-0.94;60.94;97127.00;10514103;28;20389;-66
2024/01/17 13:51:43;;;;;;;8.43;4.40;;;;;;;-0.84;60.81;97128.91;10524432;28;20044;-67
2024/01/17 13:56:52;;;;;;;8.63;4.20;;;;;;;-0.64;60.76;97115.75;10509642;28;20043;-67
2024/01/17 14:01:56;;;;;;;8.40;3.92;;;;;;;-0.68;61.26;97109.16;10529258;28;20543;-67
2024/01/17 14:06:58;;;;;;;9.32;4.45;;;;;;;-0.67;61.40;97100.53;10524969;27;20375;-67
2024/01/17 14:12:00;;;;;;;9.60;4.40;;;;;;;-0.63;61.28;97081.47;10521007;28;20055;-67
2024/01/17 14:17:04;;;;;;;9.20;4.20;;;;;;;-0.62;61.74;97083.13;10522603;28;20116;-67
2024/01/17 14:22:06;;;;;;;9.10;4.50;;;;;;;-0.46;61.92;97075.31;10523796;27;20032;-67
2024/01/17 14:27:08;;;;;;;7.43;3.53;;;;;;;-0.52;62.02;97068.81;10520073;28;20044;-67
2024/01/17 14:32:10;;;;;;;9.25;4.50;;;;;;;-0.30;62.08;97050.34;10517238;28;20099;-66
2024/01/17 14:37:12;;;;;;;10.80;4.63;;;;;;;-0.07;61.77;97054.88;10519708;28;20158;-66
2024/01/17 14:42:21;;;;;;;10.40;3.50;;;;;;;-0.33;61.89;97029.97;10437202;28;20493;-66
2024/01/17 14:47:25;;;;;;;9.27;4.30;;;;;;;-0.38;62.27;97019.19;10436547;28;20049;-66
2024/01/17 14:52:28;;;;;;;12.95;4.40;;;;;;;-0.33;62.24;97012.84;10437555;28;20044;-66
2024/01/17 14:57:30;;;;;;;6.95;3.42;;;;;;;-0.33;62.39;96999.16;10433423;28;20049;-66
2024/01/17 15:02:33;;;;;;;7.03;4.00;;;;;;;-0.32;62.47;96990.56;10450562;28;20059;-66
2024/01/17 15:07:35;;;;;;;8.43;4.15;;;;;;;-0.21;62.46;97001.00;10435424;28;20075;-66
2024/01/17 15:12:38;;;;;;;11.02;3.83;;;;;;;-0.16;62.46;96986.09;10434539;28;20148;-66
2024/01/17 15:17:40;;;;;;;9.57;4.32;;;;;;;-0.42;63.31;96964.66;10434064;28;20216;-66
2024/01/17 15:22:42;;;;;;;6.78;3.85;;;;;;;-0.37;63.36;96974.59;10442259;28;20037;-66
2024/01/17 15:27:44;;;;;;;7.60;3.60;;;;;;;-0.31;63.74;96964.78;10439702;28;20051;-67
2024/01/17 15:32:47;;;;;;;8.45;4.22;;;;;;;-0.33;63.50;96956.34;10438850;28;20033;-67
2024/01/17 15:37:50;;;;;;;7.28;4.57;;;;;;;-0.33;64.01;96963.22;10447820;28;20416;-67
2024/01/17 15:42:53;;;;;;;8.73;4.50;;;;;;;-0.25;63.97;96953.31;10517281;28;20078;-66
2024/01/17 15:47:55;;;;;;;7.75;4.13;;;;;;;-0.29;63.73;96944.13;10497916;28;20190;-66
2024/01/17 15:52:57;;;;;;;7.15;3.78;;;;;;;-0.31;63.94;96946.81;10515078;28;20111;-66
2024/01/17 15:57:59;;;;;;;6.72;3.65;;;;;;;-0.21;64.10;96941.09;10520543;28;20188;-67
2024/01/17 16:03:01;;;;;;;7.55;4.35;;;;;;;-0.29;64.21;96936.44;10517842;28;20044;-66
2024/01/17 16:08:03;;;;;;;7.57;4.18;;;;;;;-0.23;64.66;96940.38;10517892;28;20055;-66
2024/01/17 16:13:05;;;;;;;6.85;3.40;;;;;;;-0.20;64.70;96938.41;10516690;28;20036;-66
2024/01/17 16:18:07;;;;;;;7.70;4.07;;;;;;;-0.06;64.50;96940.09;10514713;28;20032;-66
2024/01/17 16:23:09;;;;;;;7.72;4.35;;;;;;;-0.02;64.50;96939.78;10512145;28;20040;-65
2024/01/17 16:28:12;;;;;;;7.05;4.15;;;;;;;-0.00;64.55;96929.41;10514941;28;20039;-65
2024/01/17 16:33:14;;;;;;;9.43;4.15;;;;;;;0.21;64.51;96935.72;10517039;28;20130;-66
2024/01/17 16:38:35;;;;;;;10.50;3.78;;;;;;;0.22;64.46;96925.34;10479734;28;20136;-66
2024/01/17 16:43:38;;;;;;;6.88;3.80;;;;;;;0.19;64.21;96928.13;10512628;28;20047;-65
2024/01/17 16:48:40;;;;;;;8.63;4.05;;;;;;;0.22;64.41;96920.19;10496929;28;20101;-66
2024/01/17 16:53:42;;;;;;;7.95;3.75;;;;;;;0.24;64.34;96912.41;10514782;28;20040;-66
2024/01/17 16:58:45;;;;;;;8.52;4.38;;;;;;;0.24;64.28;96930.41;10496928;28;20258;-66
2024/01/17 17:03:47;;;;;;;9.23;4.60;;;;;;;0.24;64.72;96926.06;10493870;28;20396;-66
2024/01/17 17:08:49;;;;;;;10.50;4.25;;;;;;;0.33;64.24;96932.34;10527282;28;20062;-66
2024/01/17 17:13:51;;;;;;;7.57;3.97;;;;;;;0.45;64.37;96934.94;10512746;28;20495;-65
2024/01/17 17:18:57;;;;;;;9.35;4.05;;;;;;;0.49;64.14;96943.25;10516464;28;20055;-65
2024/01/17 17:24:00;;;;;;;11.00;4.25;;;;;;;0.63;64.43;96937.22;10513170;28;20122;-66
2024/01/17 17:29:02;;;;;;;7.85;3.90;;;;;;;0.69;64.04;96926.50;10501924;28;20071;-66
2024/01/17 17:34:05;;;;;;;7.10;3.70;;;;;;;0.76;64.10;96933.69;10522308;28;20189;-66
2024/01/17 17:39:09;;;;;;;6.63;3.78;;;;;;;0.79;64.09;96943.75;10508857;28;20477;-67
2024/01/17 17:44:11;;;;;;;8.93;4.10;;;;;;;0.78;63.88;96944.69;10514656;28;20046;-66
2024/01/17 17:49:14;;;;;;;7.38;3.83;;;;;;;0.78;64.02;96952.41;10507954;28;20051;-66
2024/01/17 17:54:17;;;;;;;8.70;4.65;;;;;;;0.77;64.16;96948.19;10492031;28;20052;-66
2024/01/17 17:59:19;;;;;;;7.88;3.50;;;;;;;0.85;64.27;96953.63;10520986;28;20764;-66
2024/01/17 18:04:24;;;;;;;9.32;4.13;;;;;;;0.87;64.26;96944.06;10524899;28;20129;-66
2024/01/17 18:09:28;;;;;;;8.52;4.07;;;;;;;0.88;64.21;96950.88;10507861;28;20127;-66
2024/01/17 18:14:30;;;;;;;7.85;3.67;;;;;;;0.99;64.21;96958.66;10521475;28;20044;-65
2024/01/17 18:19:33;;;;;;;9.40;4.65;;;;;;;0.97;64.34;96968.22;10488271;28;20130;-66
2024/01/17 18:24:35;;;;;;;7.70;3.92;;;;;;;1.02;64.29;96965.34;10518055;28;20044;-65
2024/01/17 18:29:37;;;;;;;8.38;3.90;;;;;;;1.06;64.04;96977.06;10506059;27;20036;-66
2024/01/17 18:34:39;;;;;;;8.57;4.55;;;;;;;1.12;64.02;96982.63;10518034;28;20381;-66
2024/01/17 18:39:42;;;;;;;11.43;5.72;;;;;;;1.08;63.91;96981.19;10500674;28;20519;-66
2024/01/17 18:44:45;;;;;;;9.05;4.70;;;;;;;1.09;64.25;96982.84;10518327;28;20097;-66
2024/01/17 18:49:47;;;;;;;11.13;5.30;;;;;;;1.14;64.19;96987.66;10502056;27;20058;-64
2024/01/17 18:54:50;;;;;;;13.25;5.47;;;;;;;1.15;64.31;96991.91;10518314;28;20068;-67
2024/01/17 18:59:56;;;;;;;8.70;4.68;;;;;;;1.15;64.43;96982.44;10517350;28;20051;-62
2024/01/17 19:05:05;;;;;;;8.55;4.85;;;;;;;1.14;64.37;96983.34;10515419;28;20058;-65
2024/01/17 19:10:13;;;;;;;11.77;5.20;;;;;;;1.20;64.52;96987.25;10522742;28;20519;-65
2024/01/17 19:15:17;;;;;;;8.63;4.43;;;;;;;1.24;64.29;97002.38;10520971;28;21067;-64
2024/01/17 19:20:19;;;;;;;8.13;4.47;;;;;;;1.32;64.30;97017.28;10521715;28;20067;-65
2024/01/17 19:25:24;;;;;;;11.45;4.53;;;;;;;1.33;64.22;97019.78;10517276;27;20048;-66
2024/01/17 19:30:26;;;;;;;9.65;5.13;;;;;;;1.24;64.22;97028.13;10521512;28;20047;-66
2024/01/17 19:35:28;;;;;;;10.80;5.65;;;;;;;1.25;64.38;97034.09;10499173;28;21015;-66
2024/01/17 19:40:30;;;;;;;9.93;5.03;;;;;;;1.29;64.18;97033.78;10510825;28;20143;-65
2024/01/17 19:45:33;;;;;;;9.55;4.75;;;;;;;1.30;64.48;97027.69;10516759;27;20508;-66
2024/01/17 19:50:35;;;;;;;13.60;4.72;;;;;;;1.37;64.37;97053.84;10518229;28;20480;-66
2024/01/17 19:55:37;;;;;;;8.85;4.78;;;;;;;1.26;64.40;97059.72;10499648;28;20054;-65
2024/01/17 20:00:40;;;;;;;8.88;4.57;;;;;;;1.28;64.50;97068.16;10519845;27;20052;-66
2024/01/17 20:05:43;;;;;;;8.30;4.50;;;;;;;1.33;64.50;97080.75;10513481;28;20055;-65
2024/01/17 20:10:45;;;;;;;9.27;4.43;;;;;;;1.28;64.54;97080.22;10516671;28;20028;-64
2024/01/17 20:15:47;;;;;;;11.98;4.93;;;;;;;1.27;64.56;97082.00;10513951;28;20042;-63
2024/01/17 20:20:49;;;;;;;10.52;4.47;;;;;;;1.21;64.55;97074.69;10525365;28;20086;-63
2024/01/17 20:25:51;;;;;;;9.93;4.70;;;;;;;1.12;64.49;97085.59;10482028;28;20129;-63
2024/01/17 20:30:53;;;;;;;9.70;4.95;;;;;;;1.15;64.70;97097.44;10499348;28;20052;-64
2024/01/17 20:35:55;;;;;;;10.98;4.93;;;;;;;1.18;64.82;97112.66;10520632;28;20395;-64
2024/01/17 20:40:57;;;;;;;9.35;4.53;;;;;;;1.16;64.76;97127.38;10515468;28;20063;-63
2024/01/17 20:46:00;;;;;;;9.05;4.70;;;;;;;1.23;64.83;97115.75;10515709;28;20131;-63
2024/01/17 20:51:04;;;;;;;9.25;4.45;;;;;;;1.30;64.42;97122.97;10515161;28;20068;-63
2024/01/17 20:56:06;;;;;;;6.93;3.80;;;;;;;1.31;64.51;97126.38;10514565;28;20067;-64
2024/01/17 21:01:09;;;;;;;9.10;4.28;;;;;;;1.33;64.43;97132.22;10523198;28;20062;-64
2024/01/17 21:06:11;;;;;;;8.93;4.05;;;;;;;1.35;64.37;97159.53;10510895;27;20134;-64
2024/01/17 21:11:14;;;;;;;7.68;4.47;;;;;;;1.38;64.33;97158.47;10511986;28;20044;-65
2024/01/17 21:16:16;;;;;;;9.38;5.05;;;;;;;1.42;64.24;97167.66;10515786;28;20105;-64
2024/01/17 21:21:18;;;;;;;7.13;4.30;;;;;;;1.47;64.32;97175.06;10538267;27;20294;-65
2024/01/17 21:26:29;;;;;;;7.95;4.70;;;;;;;1.51;64.27;97189.38;10523465;27;20107;-65
2024/01/17 21:31:32;;;;;;;13.40;5.30;;;;;;;1.43;64.29;97202.78;10529005;27;20259;-65
2024/01/17 21:36:34;;;;;;;9.30;4.55;;;;;;;1.38;64.45;97224.63;10532844;28;20039;-64
2024/01/17 21:41:37;;;;;;;8.27;4.50;;;;;;;1.31;64.93;97229.34;10536335;28;20526;-64
2024/01/17 21:46:40;;;;;;;6.65;4.40;;;;;;;1.38;64.67;97236.56;10540339;28;20043;-64
2024/01/17 21:51:42;;;;;;;8.60;4.20;;;;;;;1.41;64.58;97240.69;10533386;28;20122;-64
2024/01/17 21:56:44;;;;;;;10.27;5.22;;;;;;;1.45;64.49;97249.88;10506797;28;20081;-64
2024/01/17 22:01:46;;;;;;;9.93;4.35;;;;;;;1.48;64.38;97251.41;10509680;28;20279;-64
2024/01/17 22:06:48;;;;;;;10.25;5.43;;;;;;;1.48;64.44;97269.44;10539427;28;20063;-65
2024/01/17 22:11:50;;;;;;;6.95;4.15;;;;;;;1.46;64.46;97266.97;10532410;28;20115;-64
2024/01/17 22:16:53;;;;;;;8.15;4.85;;;;;;;1.44;64.45;97268.84;10533785;28;20055;-66
2024/01/17 22:21:59;;;;;;;10.65;4.90;;;;;;;1.40;64.56;97269.91;10516882;28;20044;-65
2024/01/17 22:27:01;;;;;;;8.15;4.28;;;;;;;1.34;64.58;97296.91;10522101;28;20129;-65
2024/01/17 22:32:03;;;;;;;9.68;4.80;;;;;;;1.36;64.76;97291.66;10529884;28;20043;-64
2024/01/17 22:37:05;;;;;;;9.10;4.28;;;;;;;1.43;64.58;97286.94;10530811;28;20477;-64
2024/01/17 22:42:08;;;;;;;7.75;4.32;;;;;;;1.45;64.33;97296.22;10536741;28;20138;-65
2024/01/17 22:47:10;;;;;;;11.63;5.00;;;;;;;1.49;64.35;97297.66;10533357;28;20155;-65
2024/01/17 22:52:12;;;;;;;9.10;5.78;;;;;;;1.45;64.09;97303.09;10530858;28;20054;-65
2024/01/17 22:57:14;;;;;;;9.35;5.07;;;;;;;1.42;64.50;97311.06;10509510;28;20139;-65
2024/01/17 23:02:16;;;;;;;8.82;4.63;;;;;;;1.45;64.34;97323.72;10530568;28;20220;-65
2024/01/17 23:07:18;;;;;;;9.27;4.35;;;;;;;1.44;64.39;97328.06;10507666;28;20139;-65
2024/01/17 23:12:20;;;;;;;8.10;4.20;;;;;;;1.41;64.67;97333.38;10520983;28;20083;-65
2024/01/17 23:17:22;;;;;;;7.32;3.70;;;;;;;1.31;64.66;97329.75;10522016;28;20607;-65
2024/01/17 23:22:25;;;;;;;8.48;5.10;;;;;;;1.23;64.86;97322.53;10488010;28;20101;-65
2024/01/17 23:27:28;;;;;;;11.20;4.57;;;;;;;1.33;64.77;97330.47;10520215;28;20127;-65
2024/01/17 23:32:30;;;;;;;11.40;4.90;;;;;;;1.38;64.43;97342.13;10523964;28;20575;-65